Terminal Aerodrome Forecast
Issued by NWS

Home | Current Version | Previous Version | Text Only | Print | Product List | Glossary On
Versions: 1 2 3 4 5 6 7 8 9 10 11 12 13 14 15 16 17 18 19 20 21 22 23 24 25
000
FTUS43 KIND 030500
TAFBMG
TAF
KBMG 030520Z 0306/0406 00000KT 1SM BR SKC
      TEMPO 0306/0309 1/4SM FG VV002
     FM030900 00000KT 1/4SM FG VV002
     FM031200 00000KT 3SM BR SCT005
     FM031400 19003KT P6SM FEW030
      AMD LTD TO CLD VIS AND WIND TIL 031300=

USA.gov is the U.S. government's official web portal to all federal, state and local government web resources and services.